createdAt,value
2022-09-22T00:01:43.209Z,5.37
2022-09-22T00:04:14.041Z,4.33
2022-09-22T00:06:44.157Z,2.77
2022-09-22T00:09:16.554Z,3.37
2022-09-22T00:11:48.112Z,3.77
2022-09-22T00:14:18.441Z,4.10
2022-09-22T00:16:48.757Z,2.83
2022-09-22T00:19:18.918Z,363.33
2022-09-22T00:21:48.031Z,734.60
2022-09-22T00:24:19.424Z,122.47
2022-09-22T00:26:48.733Z,18.13
2022-09-22T00:29:17.683Z,4.63
2022-09-22T00:31:47.341Z,3.80
2022-09-22T00:34:17.473Z,5.23
2022-09-22T00:36:46.509Z,4.07
2022-09-22T00:39:16.240Z,5.17
2022-09-22T00:41:51.808Z,4.10
2022-09-22T00:44:35.457Z,4.20
2022-09-22T00:47:12.897Z,3.13
2022-09-22T00:49:46.731Z,4.90
2022-09-22T00:52:18.973Z,4.37
2022-09-22T00:54:48.183Z,4.60
2022-09-22T00:57:20.863Z,3.87
2022-09-22T00:59:51.989Z,3.37
2022-09-22T01:02:21.270Z,4.07
2022-09-22T01:04:52.430Z,3.83
2022-09-22T01:07:23.413Z,3.87
2022-09-22T01:09:52.556Z,24.97
2022-09-22T01:12:24.518Z,4.83
2022-09-22T01:15:14.640Z,4.43
2022-09-22T01:17:53.033Z,4.33
2022-09-22T01:21:03.377Z,935.60
2022-09-22T01:24:28.485Z,61.10
2022-09-22T01:27:36.125Z,9.43
2022-09-22T01:30:31.863Z,4.57
2022-09-22T01:33:13.790Z,3.63
2022-09-22T01:35:51.454Z,5.63
2022-09-22T01:38:31.788Z,5.80
2022-09-22T01:41:05.114Z,5.53
2022-09-22T01:43:40.298Z,5.53
2022-09-22T01:46:15.365Z,4.47
2022-09-22T01:48:48.342Z,6.70
2022-09-22T01:51:22.128Z,5.67
2022-09-22T01:53:58.210Z,5.80
2022-09-22T01:56:29.129Z,5.43
2022-09-22T01:59:02.776Z,5.07
2022-09-22T02:01:38.428Z,5.17
2022-09-22T02:04:11.335Z,4.20
2022-09-22T02:06:45.109Z,4.53
2022-09-22T02:09:17.593Z,4.43
2022-09-22T02:11:46.527Z,6.47
2022-09-22T02:14:15.694Z,3.77
2022-09-22T02:16:45.814Z,4.37
2022-09-22T02:19:19.716Z,5.10
2022-09-22T02:21:49.773Z,5.77
2022-09-22T02:24:37.516Z,5.10
2022-09-22T02:27:09.821Z,5.90
2022-09-22T02:29:44.940Z,4.50
2022-09-22T02:32:17.796Z,4.03
2022-09-22T02:34:47.970Z,5.27
2022-09-22T02:37:23.827Z,7.07
2022-09-22T02:40:03.883Z,3.90
2022-09-22T02:42:37.122Z,5.43
2022-09-22T02:45:14.277Z,5.40
2022-09-22T02:47:49.370Z,6.80
2022-09-22T02:50:20.099Z,4.87
2022-09-22T02:52:52.627Z,5.10
2022-09-22T02:55:21.317Z,4.73
2022-09-22T02:57:49.704Z,5.70
2022-09-22T03:00:18.224Z,4.80
2022-09-22T03:02:48.046Z,5.40
2022-09-22T03:05:16.767Z,6.77
2022-09-22T03:07:45.300Z,5.97
2022-09-22T03:10:15.495Z,5.03
2022-09-22T03:13:09.126Z,7.20
2022-09-22T03:15:32.696Z,5.30
2022-09-22T03:18:02.648Z,5.90
2022-09-22T03:20:31.620Z,7.27
2022-09-22T03:23:00.158Z,4.57
2022-09-22T03:25:28.721Z,14.40
2022-09-22T03:27:57.483Z,5.50
2022-09-22T03:30:25.851Z,7.13
2022-09-22T03:32:54.244Z,6.20
2022-09-22T03:35:24.176Z,4.57
2022-09-22T03:37:52.655Z,6.63
2022-09-22T03:40:22.561Z,4.17
2022-09-22T03:42:51.266Z,10.13
2022-09-22T03:45:19.916Z,6.93
2022-09-22T03:47:48.454Z,6.30
2022-09-22T03:50:16.992Z,4.33
2022-09-22T03:52:47.094Z,4.63
2022-09-22T03:55:15.724Z,5.27
2022-09-22T03:57:44.277Z,14.17
2022-09-22T04:00:14.607Z,4.90
2022-09-22T04:02:43.244Z,5.13
2022-09-22T04:05:12.479Z,4.50
2022-09-22T04:07:41.021Z,6.13
2022-09-22T04:10:11.467Z,4.87
2022-09-22T04:12:39.851Z,4.23
2022-09-22T04:15:09.193Z,4.90
2022-09-22T04:17:37.764Z,5.77
2022-09-22T04:20:08.706Z,4.20
2022-09-22T04:22:37.176Z,5.53
2022-09-22T04:25:06.443Z,5.47
2022-09-22T04:27:37.130Z,4.20
2022-09-22T04:30:06.382Z,7.40
2022-09-22T04:32:35.047Z,5.27
2022-09-22T04:35:03.693Z,7.83
2022-09-22T04:37:32.036Z,8.90
2022-09-22T04:40:00.749Z,6.60
2022-09-22T04:42:29.141Z,8.47
2022-09-22T04:45:02.205Z,17.13
2022-09-22T04:47:31.300Z,9.90
2022-09-22T04:49:59.917Z,7.73
2022-09-22T04:52:28.477Z,5.60
2022-09-22T04:54:56.841Z,10.97
2022-09-22T04:57:25.427Z,8.53
2022-09-22T04:59:53.821Z,10.73
2022-09-22T05:02:23.612Z,5.97
2022-09-22T05:04:51.986Z,4.40
2022-09-22T05:07:20.469Z,13.17
2022-09-22T05:09:49.113Z,6.57
2022-09-22T05:12:17.941Z,4.73
2022-09-22T05:14:46.457Z,4.17
2022-09-22T05:17:15.284Z,4.87
2022-09-22T05:19:45.476Z,5.37
2022-09-22T05:22:14.490Z,6.77
2022-09-22T05:24:43.041Z,4.50
2022-09-22T05:27:11.418Z,7.60
2022-09-22T05:29:39.784Z,6.60
2022-09-22T05:32:08.412Z,7.57
2022-09-22T05:34:36.809Z,8.73
2022-09-22T05:37:06.771Z,10.17
2022-09-22T05:39:35.208Z,6.57
2022-09-22T05:42:07.523Z,8.73
2022-09-22T05:44:38.620Z,6.73
2022-09-22T05:47:07.680Z,7.77
2022-09-22T05:49:36.141Z,7.57
2022-09-22T05:52:04.580Z,7.40
2022-09-22T05:54:34.369Z,7.90
2022-09-22T05:57:02.825Z,5.73
2022-09-22T05:59:31.477Z,7.43
2022-09-22T06:02:01.574Z,8.83
2022-09-22T06:04:30.278Z,8.27
2022-09-22T06:06:59.296Z,8.57
2022-09-22T06:09:27.686Z,10.87
2022-09-22T06:11:57.655Z,20.13
2022-09-22T06:14:26.092Z,9.13
2022-09-22T06:16:54.994Z,9.20
2022-09-22T06:19:23.984Z,11.23
2022-09-22T06:21:52.760Z,10.10
2022-09-22T06:24:22.632Z,12.13
2022-09-22T06:26:51.088Z,13.43
2022-09-22T06:29:21.019Z,11.83
2022-09-22T06:31:52.066Z,10.47
2022-09-22T06:34:20.543Z,13.47
2022-09-22T06:36:48.849Z,11.57
2022-09-22T06:39:17.226Z,11.07
2022-09-22T06:41:46.076Z,16.37
2022-09-22T06:44:14.801Z,13.57
2022-09-22T06:46:44.569Z,17.50
2022-09-22T06:49:13.950Z,13.53
2022-09-22T06:51:42.331Z,14.03
2022-09-22T06:54:11.408Z,11.87
2022-09-22T06:56:42.982Z,13.73
2022-09-22T06:59:14.588Z,12.97
2022-09-22T07:01:46.423Z,13.37
2022-09-22T07:04:15.542Z,12.60
2022-09-22T07:06:44.305Z,12.37
2022-09-22T07:09:12.773Z,15.97
2022-09-22T07:11:41.113Z,12.73
2022-09-22T07:14:10.699Z,11.63
2022-09-22T07:16:41.081Z,10.47
2022-09-22T07:19:11.092Z,11.07
2022-09-22T07:21:40.991Z,9.33
2022-09-22T07:24:10.044Z,12.00
2022-09-22T07:26:40.812Z,10.57
2022-09-22T07:29:13.615Z,10.10
2022-09-22T07:31:43.509Z,10.60
2022-09-22T07:34:14.346Z,7.03
2022-09-22T07:36:42.748Z,8.10
2022-09-22T07:39:12.795Z,6.87
2022-09-22T07:41:45.264Z,8.27
2022-09-22T07:44:31.859Z,7.80
2022-09-22T07:47:01.144Z,8.67
2022-09-22T07:49:31.366Z,5.97
2022-09-22T07:51:59.781Z,5.50
2022-09-22T07:54:28.936Z,5.93
2022-09-22T07:56:59.081Z,8.10
2022-09-22T07:59:28.145Z,9.47
2022-09-22T08:01:56.632Z,6.50
2022-09-22T08:04:26.772Z,6.80
2022-09-22T08:06:56.989Z,7.97
2022-09-22T08:09:26.597Z,5.33
2022-09-22T08:11:55.386Z,9.53
2022-09-22T08:14:24.467Z,9.20
2022-09-22T08:16:54.196Z,6.97
2022-09-22T08:19:24.562Z,7.60
2022-09-22T08:21:55.164Z,6.10
2022-09-22T08:24:25.256Z,6.47
2022-09-22T08:26:56.884Z,6.83
2022-09-22T08:29:25.961Z,4.67
2022-09-22T08:31:54.725Z,5.40
2022-09-22T08:34:23.551Z,13.83
2022-09-22T08:36:52.208Z,5.30
2022-09-22T08:39:20.899Z,3.47
2022-09-22T08:42:14.120Z,4.43
2022-09-22T08:44:53.812Z,4.17
2022-09-22T08:47:40.846Z,4.97
2022-09-22T08:50:38.886Z,3.90
2022-09-22T08:53:12.085Z,4.43
2022-09-22T08:55:43.708Z,5.50
2022-09-22T08:58:29.065Z,4.63
2022-09-22T09:01:06.720Z,6.57
2022-09-22T09:03:49.318Z,5.97
2022-09-22T09:06:25.206Z,3.87
2022-09-22T09:09:18.650Z,2.53
2022-09-22T09:12:12.341Z,4.07
2022-09-22T09:15:01.646Z,3.10
2022-09-22T09:17:32.256Z,2.23
2022-09-22T09:20:11.439Z,1.90
2022-09-22T09:22:45.122Z,1.97
2022-09-22T09:25:23.590Z,1.27
2022-09-22T09:27:55.812Z,2.70
2022-09-22T09:30:25.817Z,1.60
2022-09-22T09:32:57.908Z,2.57
2022-09-22T09:35:39.784Z,1.60
2022-09-22T09:38:15.124Z,2.30
2022-09-22T09:40:44.830Z,5.00
2022-09-22T09:43:13.487Z,1.67
2022-09-22T09:45:52.114Z,2.57
2022-09-22T09:48:26.647Z,2.30
2022-09-22T09:50:55.125Z,1.57
2022-09-22T09:53:32.685Z,1.70
2022-09-22T09:56:01.353Z,0.83
2022-09-22T09:58:47.022Z,2.00
2022-09-22T10:01:16.978Z,0.80
2022-09-22T10:03:52.047Z,0.80
2022-09-22T10:06:26.619Z,1.30
2022-09-22T10:08:55.095Z,0.97
2022-09-22T10:11:31.844Z,2.10
2022-09-22T10:14:00.878Z,1.10
2022-09-22T10:16:33.698Z,4.27
2022-09-22T10:19:21.253Z,2.10
2022-09-22T10:21:49.680Z,0.70
2022-09-22T10:24:31.806Z,1.17
2022-09-22T10:27:03.795Z,0.90
2022-09-22T10:29:35.783Z,0.80
2022-09-22T10:32:18.429Z,3.57
2022-09-22T10:34:48.584Z,0.70
2022-09-22T10:37:19.053Z,2.47
2022-09-22T10:39:50.733Z,1.57
2022-09-22T10:42:38.169Z,1.00
2022-09-22T10:45:10.128Z,1.77
2022-09-22T10:47:55.975Z,0.77
2022-09-22T10:50:49.461Z,0.80
2022-09-22T10:53:40.306Z,2.13
2022-09-22T10:56:18.926Z,1.50
2022-09-22T10:59:21.018Z,1.20
2022-09-22T11:02:01.449Z,1.20
2022-09-22T11:04:43.495Z,0.70
2022-09-22T11:07:46.957Z,1.53
2022-09-22T11:10:46.126Z,0.80
2022-09-22T11:13:27.937Z,1.03
2022-09-22T11:16:34.881Z,0.70
2022-09-22T11:19:21.602Z,0.93
2022-09-22T11:22:06.821Z,1.20
2022-09-22T11:24:52.787Z,0.90
2022-09-22T11:27:32.303Z,0.90
2022-09-22T11:30:20.753Z,1.23
2022-09-22T11:33:28.459Z,1.07
2022-09-22T11:36:14.254Z,0.70
2022-09-22T11:39:14.920Z,0.80
2022-09-22T11:41:49.162Z,1.43
2022-09-22T11:44:33.689Z,1.10
2022-09-22T11:47:19.697Z,1.23
2022-09-22T11:50:17.794Z,1.50
2022-09-22T11:53:05.039Z,2.00
2022-09-22T11:55:40.049Z,0.80
2022-09-22T11:58:15.525Z,0.87
2022-09-22T12:00:48.598Z,2.47
2022-09-22T12:03:22.065Z,0.67
2022-09-22T12:05:56.123Z,4.63
2022-09-22T12:08:27.432Z,2.00
2022-09-22T12:10:58.572Z,1.97
2022-09-22T12:13:29.437Z,0.70
2022-09-22T12:16:06.998Z,1.10
2022-09-22T12:18:43.216Z,0.80
2022-09-22T12:21:24.653Z,1.03
2022-09-22T12:23:54.066Z,1.00
2022-09-22T12:26:32.672Z,0.87
2022-09-22T12:29:03.208Z,0.80
2022-09-22T12:31:36.626Z,0.60
2022-09-22T12:34:07.567Z,1.00
2022-09-22T12:36:39.483Z,1.03
2022-09-22T12:39:18.378Z,0.50
2022-09-22T12:41:50.838Z,0.83
2022-09-22T12:44:23.315Z,0.80
2022-09-22T12:46:52.743Z,0.83
2022-09-22T12:49:24.046Z,0.73
2022-09-22T12:51:53.443Z,0.80
2022-09-22T12:54:41.998Z,1.23
2022-09-22T12:57:30.848Z,0.70
2022-09-22T13:00:20.932Z,0.50
2022-09-22T13:02:50.085Z,0.50
2022-09-22T13:05:36.800Z,0.50
2022-09-22T13:08:05.883Z,0.67
2022-09-22T13:10:52.642Z,0.70
2022-09-22T13:13:37.311Z,0.50
2022-09-22T13:16:22.227Z,0.97
2022-09-22T13:19:00.185Z,0.77
2022-09-22T13:21:30.710Z,0.50
2022-09-22T13:24:00.937Z,2.83
2022-09-22T13:26:31.959Z,0.60
2022-09-22T13:29:05.003Z,1.03
2022-09-22T13:31:45.445Z,1.13
2022-09-22T13:34:31.290Z,0.97
2022-09-22T13:37:02.406Z,0.80
2022-09-22T13:39:35.332Z,2.80
2022-09-22T13:42:08.107Z,0.63
2022-09-22T13:44:42.128Z,0.80
2022-09-22T13:47:18.575Z,0.80
2022-09-22T13:49:51.731Z,0.93
2022-09-22T13:52:23.170Z,0.60
2022-09-22T13:54:55.981Z,0.90
2022-09-22T13:57:28.772Z,0.60
2022-09-22T14:00:01.536Z,0.73
2022-09-22T14:02:32.642Z,0.70
2022-09-22T14:05:04.170Z,0.60
2022-09-22T14:07:45.072Z,0.57
2022-09-22T14:10:27.389Z,0.70
2022-09-22T14:12:57.071Z,0.60
2022-09-22T14:15:43.754Z,0.60
2022-09-22T14:18:27.515Z,0.70
2022-09-22T14:20:58.043Z,0.50
2022-09-22T14:23:29.397Z,0.50
2022-09-22T14:25:59.115Z,0.50
2022-09-22T14:28:31.762Z,0.60
2022-09-22T14:31:02.021Z,1.60
2022-09-22T14:33:34.413Z,0.87
2022-09-22T14:36:05.270Z,0.90
2022-09-22T14:38:44.424Z,0.50
2022-09-22T14:41:24.026Z,0.73
2022-09-22T14:43:53.511Z,0.83
2022-09-22T14:46:34.023Z,0.60
2022-09-22T14:49:45.041Z,0.70
2022-09-22T14:52:25.781Z,2.00
2022-09-22T14:54:56.734Z,1.07
2022-09-22T14:57:26.586Z,0.50
2022-09-22T15:00:14.332Z,1.03
2022-09-22T15:02:47.255Z,1.43
2022-09-22T15:05:29.631Z,2.97
2022-09-22T15:08:00.641Z,1.27
2022-09-22T15:10:31.018Z,1.97
2022-09-22T15:13:20.313Z,11.83
2022-09-22T15:15:50.265Z,5.13
2022-09-22T15:18:19.667Z,6.77
2022-09-22T15:20:51.998Z,10.10
2022-09-22T15:23:26.151Z,7.43
2022-09-22T15:25:57.549Z,16.93
2022-09-22T15:28:27.278Z,16.53
2022-09-22T15:30:55.639Z,22.60
2022-09-22T15:33:25.197Z,32.60
2022-09-22T15:35:58.114Z,143.13
2022-09-22T15:38:31.603Z,84.90
2022-09-22T15:41:00.871Z,18.33
2022-09-22T15:43:31.465Z,13.40
2022-09-22T15:46:04.412Z,9.67
2022-09-22T15:48:35.429Z,7.63
2022-09-22T15:51:06.440Z,9.43
2022-09-22T15:53:37.953Z,4.37
2022-09-22T15:56:09.081Z,6.53
2022-09-22T15:58:41.049Z,9.53
2022-09-22T16:01:09.779Z,8.17
2022-09-22T16:03:41.406Z,2.70
2022-09-22T16:06:13.155Z,3.00
2022-09-22T16:08:45.065Z,1.30
2022-09-22T16:11:15.276Z,2.97
2022-09-22T16:13:45.044Z,1.50
2022-09-22T16:16:14.022Z,1.40
2022-09-22T16:18:44.134Z,1.13
2022-09-22T16:21:21.683Z,1.03
2022-09-22T16:23:53.773Z,1.20
2022-09-22T16:26:22.810Z,2.00
2022-09-22T16:28:51.179Z,1.57
2022-09-22T16:31:21.029Z,3.70
2022-09-22T16:33:54.328Z,2.17
2022-09-22T16:36:23.141Z,7.17
2022-09-22T16:38:53.298Z,24.43
2022-09-22T16:41:24.471Z,26.63
2022-09-22T16:43:54.842Z,39.40
2022-09-22T16:46:30.555Z,72.30
2022-09-22T16:49:00.764Z,108.17
2022-09-22T16:51:29.773Z,204.97
2022-09-22T16:53:59.634Z,227.33
2022-09-22T16:56:29.562Z,191.23
2022-09-22T16:59:01.478Z,150.00
2022-09-22T17:01:31.431Z,141.57
2022-09-22T17:04:00.777Z,130.57
2022-09-22T17:06:29.652Z,52.13
2022-09-22T17:09:00.411Z,20.70
2022-09-22T17:11:33.636Z,13.60
2022-09-22T17:14:06.218Z,7.87
2022-09-22T17:16:37.910Z,15.07
2022-09-22T17:19:08.398Z,14.87
2022-09-22T17:21:38.719Z,8.43
2022-09-22T17:24:09.665Z,8.23
2022-09-22T17:26:41.473Z,9.27
2022-09-22T17:29:11.498Z,8.50
2022-09-22T17:31:40.280Z,7.63
2022-09-22T17:34:09.944Z,6.50
2022-09-22T17:36:38.388Z,6.87
2022-09-22T17:39:10.724Z,6.53
2022-09-22T17:41:47.256Z,7.70
2022-09-22T17:44:21.614Z,9.73
2022-09-22T17:47:08.155Z,7.70
2022-09-22T17:49:54.278Z,5.20
2022-09-22T17:52:40.312Z,6.00
2022-09-22T17:55:14.344Z,4.70
2022-09-22T17:57:44.044Z,7.13
2022-09-22T18:00:14.677Z,5.80
2022-09-22T18:02:43.742Z,5.03
2022-09-22T18:05:14.285Z,3.63
2022-09-22T18:07:43.075Z,2.93
2022-09-22T18:10:15.205Z,4.20
2022-09-22T18:12:44.438Z,5.70
2022-09-22T18:15:14.364Z,5.70
2022-09-22T18:17:44.535Z,4.03
2022-09-22T18:20:15.338Z,6.70
2022-09-22T18:22:47.993Z,4.70
2022-09-22T18:25:24.402Z,5.20
2022-09-22T18:27:53.439Z,3.70
2022-09-22T18:30:21.830Z,5.30
2022-09-22T18:32:50.388Z,3.90
2022-09-22T18:35:18.969Z,5.03
2022-09-22T18:37:47.767Z,7.00
2022-09-22T18:40:18.095Z,4.67
2022-09-22T18:42:46.641Z,4.50
2022-09-22T18:45:15.484Z,6.60
2022-09-22T18:47:44.274Z,3.73
2022-09-22T18:50:13.576Z,3.53
2022-09-22T18:52:45.254Z,3.07
2022-09-22T18:55:18.995Z,3.33
2022-09-22T18:57:49.060Z,4.57
2022-09-22T19:00:22.305Z,2.27
2022-09-22T19:02:51.070Z,4.43
2022-09-22T19:05:20.004Z,2.63
2022-09-22T19:07:48.808Z,20.30
2022-09-22T19:10:22.165Z,127.87
2022-09-22T19:12:52.584Z,270.67
2022-09-22T19:15:21.242Z,705.47
2022-09-22T19:17:50.795Z,809.13
2022-09-22T19:20:24.127Z,88.57
2022-09-22T19:22:54.114Z,15.90
2022-09-22T19:25:23.830Z,4.00
2022-09-22T19:27:54.850Z,5.37
2022-09-22T19:30:27.527Z,4.03
2022-09-22T19:33:00.950Z,2.70
2022-09-22T19:35:30.019Z,2.73
2022-09-22T19:37:58.846Z,3.20
2022-09-22T19:40:27.344Z,2.03
2022-09-22T19:42:57.300Z,2.73
2022-09-22T19:45:27.171Z,2.50
2022-09-22T19:47:57.706Z,5.50
2022-09-22T19:50:26.962Z,4.40
2022-09-22T19:52:55.443Z,4.40
2022-09-22T19:55:23.889Z,3.70
2022-09-22T19:57:54.419Z,166.57
2022-09-22T20:00:27.045Z,334.50
2022-09-22T20:02:58.920Z,231.50
2022-09-22T20:05:30.714Z,533.50
2022-09-22T20:07:59.205Z,529.67
2022-09-22T20:10:27.614Z,87.47
2022-09-22T20:12:56.153Z,6.10
2022-09-22T20:15:27.867Z,7.13
2022-09-22T20:17:56.380Z,7.90
2022-09-22T20:20:27.151Z,12.13
2022-09-22T20:23:00.536Z,296.33
2022-09-22T20:25:31.395Z,568.13
2022-09-22T20:28:00.444Z,376.13
2022-09-22T20:30:30.420Z,138.63
2022-09-22T20:32:59.423Z,213.97
2022-09-22T20:35:28.411Z,58.30
2022-09-22T20:37:58.384Z,5.33
2022-09-22T20:40:27.438Z,392.93
2022-09-22T20:42:55.907Z,284.47
2022-09-22T20:45:25.039Z,390.83
2022-09-22T20:47:56.271Z,327.37
2022-09-22T20:50:24.762Z,39.63
2022-09-22T20:52:53.853Z,6.93
2022-09-22T20:55:22.344Z,3.67
2022-09-22T20:57:50.833Z,5.07
2022-09-22T21:00:19.406Z,3.17
2022-09-22T21:02:47.887Z,2.23
2022-09-22T21:05:18.948Z,2.90
2022-09-22T21:07:47.546Z,2.53
2022-09-22T21:10:41.486Z,6.30
2022-09-22T21:13:10.290Z,6.20
2022-09-22T21:15:39.504Z,10.50
2022-09-22T21:18:08.178Z,5.17
2022-09-22T21:20:38.096Z,6.23
2022-09-22T21:23:06.810Z,3.67
2022-09-22T21:25:35.634Z,4.80
2022-09-22T21:28:04.430Z,5.87
2022-09-22T21:30:32.842Z,6.03
2022-09-22T21:33:02.879Z,9.10
2022-09-22T21:35:31.527Z,5.20
2022-09-22T21:38:01.923Z,5.13
2022-09-22T21:40:30.434Z,6.03
2022-09-22T21:42:59.334Z,4.73
2022-09-22T21:45:27.991Z,6.83
2022-09-22T21:47:56.459Z,6.50
2022-09-22T21:50:24.941Z,6.00
2022-09-22T21:52:54.069Z,5.50
2022-09-22T21:55:24.162Z,9.30
2022-09-22T21:57:54.250Z,11.80
2022-09-22T22:00:48.013Z,11.77
2022-09-22T22:03:42.307Z,13.67
2022-09-22T22:06:13.731Z,14.60
2022-09-22T22:08:45.343Z,12.73
2022-09-22T22:11:19.557Z,13.20
2022-09-22T22:13:48.241Z,10.43
2022-09-22T22:16:16.764Z,20.50
2022-09-22T22:18:45.481Z,15.10
2022-09-22T22:21:16.061Z,11.73
2022-09-22T22:23:46.233Z,12.73
2022-09-22T22:26:20.306Z,12.47
2022-09-22T22:28:50.516Z,15.97
2022-09-22T22:31:21.653Z,15.03
2022-09-22T22:33:51.739Z,12.13
2022-09-22T22:36:20.333Z,14.50
2022-09-22T22:38:48.807Z,18.27
2022-09-22T22:41:18.697Z,16.33
2022-09-22T22:43:48.237Z,20.13
2022-09-22T22:46:19.146Z,17.67
2022-09-22T22:48:49.184Z,20.93
2022-09-22T22:51:22.001Z,68.97
2022-09-22T22:53:51.055Z,20.30
2022-09-22T22:56:22.761Z,17.77
2022-09-22T22:58:52.516Z,18.07
2022-09-22T23:01:22.988Z,15.60
2022-09-22T23:03:53.685Z,325.53
2022-09-22T23:06:24.422Z,499.47
2022-09-22T23:08:53.874Z,305.30
2022-09-22T23:11:27.559Z,688.30
2022-09-22T23:13:59.852Z,460.17
2022-09-22T23:16:30.046Z,319.10
2022-09-22T23:19:01.505Z,106.57
2022-09-22T23:21:31.119Z,22.07
2022-09-22T23:24:00.106Z,18.13
2022-09-22T23:26:30.359Z,17.27
2022-09-22T23:28:59.725Z,15.57
2022-09-22T23:31:28.417Z,17.47
2022-09-22T23:33:57.777Z,18.87
2022-09-22T23:36:28.367Z,15.50
2022-09-22T23:38:57.891Z,18.07
2022-09-22T23:41:26.964Z,20.07
2022-09-22T23:43:56.883Z,26.73
2022-09-22T23:46:25.411Z,19.53
2022-09-22T23:48:55.751Z,18.13
2022-09-22T23:51:24.680Z,12.33
2022-09-22T23:53:53.293Z,13.70
2022-09-22T23:56:21.793Z,16.33
2022-09-22T23:58:50.302Z,13.00
